AVA8569 SKCG-SKCL
Flight info
| Callsign | AVA8569 |
|---|---|
| Flight time | 1h 9m |
| Altitude | 37000 |
| Route | ESKAB2A AKPEK W37 PEI W3 ULQ ULQ2G |
| Aircraft | A320/M-SDE3FGHIRWY/LB1 |
Departure
| Time | 2026-05-06 16:31 |
|---|---|
| Airport | Rafael Nuñez International Airport (SKCG) |
Arrival
| Time | 2026-05-06 17:41 |
|---|---|
| Airport | Alfonso Bonilla Aragon International Airport (SKCL) |
| Time | Latitude | Longitude | Altitude | Speed | Heading |
|---|---|---|---|---|---|
| 2026-05-06 15:54 | 10.44531 | -75.51551 | 51 ft | 0 kts | 271° |
| 2026-05-06 16:18 | 10.44530 | -75.51539 | 51 ft | 3 kts | 266° |
| 2026-05-06 16:18 | 10.44534 | -75.51516 | 51 ft | 3 kts | 250° |
| 2026-05-06 16:18 | 10.44544 | -75.51494 | 51 ft | 3 kts | 238° |
| 2026-05-06 16:18 | 10.44555 | -75.51477 | 50 ft | 3 kts | 235° |
| 2026-05-06 16:19 | 10.44570 | -75.51462 | 51 ft | 3 kts | 197° |
| 2026-05-06 16:19 | 10.44593 | -75.51458 | 49 ft | 3 kts | 182° |
| 2026-05-06 16:19 | 10.44590 | -75.51457 | 51 ft | 3 kts | 174° |
| 2026-05-06 16:19 | 10.44569 | -75.51448 | 48 ft | 3 kts | 149° |
| 2026-05-06 16:20 | 10.44555 | -75.51431 | 48 ft | 3 kts | 115° |
| 2026-05-06 16:20 | 10.44553 | -75.51409 | 51 ft | 3 kts | 92° |
| 2026-05-06 16:20 | 10.44552 | -75.51385 | 51 ft | 3 kts | 93° |
| 2026-05-06 16:20 | 10.44551 | -75.51369 | 51 ft | 0 kts | 93° |
| 2026-05-06 16:25 | 10.44551 | -75.51365 | 51 ft | 4 kts | 93° |
| 2026-05-06 16:25 | 10.44546 | -75.51299 | 51 ft | 10 kts | 106° |
| 2026-05-06 16:25 | 10.44487 | -75.51278 | 51 ft | 9 kts | 179° |
| 2026-05-06 16:25 | 10.44419 | -75.51282 | 51 ft | 10 kts | 183° |
| 2026-05-06 16:26 | 10.44349 | -75.51286 | 51 ft | 10 kts | 182° |
| 2026-05-06 16:26 | 10.44278 | -75.51289 | 51 ft | 10 kts | 182° |
| 2026-05-06 16:26 | 10.44205 | -75.51292 | 49 ft | 14 kts | 181° |
| 2026-05-06 16:26 | 10.44089 | -75.51295 | 51 ft | 19 kts | 182° |
| 2026-05-06 16:27 | 10.43969 | -75.51301 | 51 ft | 16 kts | 182° |
| 2026-05-06 16:27 | 10.43845 | -75.51306 | 51 ft | 19 kts | 182° |
| 2026-05-06 16:27 | 10.43708 | -75.51312 | 51 ft | 17 kts | 182° |
| 2026-05-06 16:27 | 10.43580 | -75.51317 | 51 ft | 19 kts | 182° |
| 2026-05-06 16:28 | 10.43442 | -75.51323 | 51 ft | 19 kts | 182° |
| 2026-05-06 16:28 | 10.43322 | -75.51329 | 51 ft | 16 kts | 182° |
| 2026-05-06 16:28 | 10.43224 | -75.51311 | 49 ft | 13 kts | 140° |
| 2026-05-06 16:28 | 10.43160 | -75.51250 | 51 ft | 11 kts | 137° |
| 2026-05-06 16:29 | 10.43100 | -75.51231 | 48 ft | 8 kts | 191° |
| 2026-05-06 16:29 | 10.43069 | -75.51260 | 51 ft | 5 kts | 257° |
| 2026-05-06 16:29 | 10.43071 | -75.51301 | 51 ft | 5 kts | 271° |
| 2026-05-06 16:29 | 10.43074 | -75.51319 | 51 ft | 2 kts | 283° |
| 2026-05-06 16:30 | 10.43107 | -75.51337 | 51 ft | 7 kts | 357° |
| 2026-05-06 16:30 | 10.43138 | -75.51334 | 51 ft | 6 kts | 1° |
| 2026-05-06 16:30 | 10.43146 | -75.51334 | 51 ft | 0 kts | 0° |
| 2026-05-06 16:30 | 10.43203 | -75.51333 | 51 ft | 35 kts | 1° |
| 2026-05-06 16:31 | 10.43701 | -75.51311 | 51 ft | 105 kts | 2° |
| 2026-05-06 16:31 | 10.44625 | -75.51276 | 65 ft | 156 kts | 1° |
| 2026-05-06 16:31 | 10.45738 | -75.51223 | 575 ft | 162 kts | 1° |
| 2026-05-06 16:31 | 10.46866 | -75.51168 | 1189 ft | 163 kts | 3° |
| 2026-05-06 16:32 | 10.48017 | -75.51121 | 1650 ft | 167 kts | 3° |
| 2026-05-06 16:32 | 10.49176 | -75.51070 | 2168 ft | 167 kts | 3° |
| 2026-05-06 16:32 | 10.50300 | -75.51305 | 2636 ft | 169 kts | 322° |
| 2026-05-06 16:32 | 10.50982 | -75.52246 | 3101 ft | 167 kts | 284° |
| 2026-05-06 16:33 | 10.50983 | -75.53429 | 3434 ft | 176 kts | 248° |
| 2026-05-06 16:33 | 10.50251 | -75.54485 | 3619 ft | 196 kts | 224° |
| 2026-05-06 16:33 | 10.49250 | -75.55539 | 3841 ft | 219 kts | 224° |
| 2026-05-06 16:34 | 10.46921 | -75.58016 | 4446 ft | 265 kts | 224° |
| 2026-05-06 16:34 | 10.45638 | -75.59394 | 5020 ft | 277 kts | 225° |
| 2026-05-06 16:34 | 10.44216 | -75.60733 | 5769 ft | 281 kts | 214° |
| 2026-05-06 16:34 | 10.42486 | -75.61666 | 6504 ft | 284 kts | 198° |
| 2026-05-06 16:35 | 10.40555 | -75.62083 | 7224 ft | 284 kts | 183° |
| 2026-05-06 16:35 | 10.38572 | -75.62237 | 7970 ft | 287 kts | 182° |
| 2026-05-06 16:35 | 10.36565 | -75.62393 | 8759 ft | 289 kts | 182° |
| 2026-05-06 16:35 | 10.34551 | -75.62552 | 9543 ft | 291 kts | 182° |
| 2026-05-06 16:36 | 10.32544 | -75.62712 | 10223 ft | 296 kts | 182° |
| 2026-05-06 16:36 | 10.30419 | -75.62885 | 10460 ft | 318 kts | 182° |
| 2026-05-06 16:36 | 10.28130 | -75.63069 | 10616 ft | 341 kts | 182° |
| 2026-05-06 16:36 | 10.25705 | -75.63266 | 10914 ft | 355 kts | 182° |
| 2026-05-06 16:37 | 10.23213 | -75.63472 | 11446 ft | 362 kts | 182° |
| 2026-05-06 16:37 | 10.20684 | -75.63683 | 12048 ft | 366 kts | 182° |
| 2026-05-06 16:37 | 10.18133 | -75.63894 | 12658 ft | 370 kts | 182° |
| 2026-05-06 16:37 | 10.15551 | -75.64107 | 13270 ft | 373 kts | 182° |
| 2026-05-06 16:38 | 10.12951 | -75.64317 | 13848 ft | 377 kts | 182° |
| 2026-05-06 16:38 | 10.10322 | -75.64528 | 14358 ft | 380 kts | 182° |
| 2026-05-06 16:38 | 10.08568 | -75.64668 | 14697 ft | 383 kts | 182° |
| 2026-05-06 16:38 | 10.05023 | -75.64956 | 15363 ft | 388 kts | 182° |
| 2026-05-06 16:39 | 10.02318 | -75.65178 | 15878 ft | 391 kts | 182° |
| 2026-05-06 16:39 | 9.99587 | -75.65402 | 16389 ft | 395 kts | 182° |
| 2026-05-06 16:39 | 9.96839 | -75.65624 | 16908 ft | 398 kts | 182° |
| 2026-05-06 16:39 | 9.94961 | -75.65775 | 17247 ft | 401 kts | 182° |
| 2026-05-06 16:40 | 9.92167 | -75.66000 | 17753 ft | 405 kts | 182° |
| 2026-05-06 16:40 | 9.89348 | -75.66232 | 18255 ft | 408 kts | 182° |
| 2026-05-06 16:40 | 9.86502 | -75.66469 | 18697 ft | 412 kts | 182° |
| 2026-05-06 16:40 | 9.83662 | -75.66706 | 19146 ft | 415 kts | 182° |
| 2026-05-06 16:41 | 9.80771 | -75.66943 | 19605 ft | 418 kts | 182° |
| 2026-05-06 16:41 | 9.77857 | -75.67178 | 20055 ft | 421 kts | 182° |
| 2026-05-06 16:41 | 9.74913 | -75.67412 | 20488 ft | 424 kts | 182° |
| 2026-05-06 16:41 | 9.71959 | -75.67647 | 20920 ft | 428 kts | 182° |
| 2026-05-06 16:42 | 9.68979 | -75.67885 | 21336 ft | 431 kts | 182° |
| 2026-05-06 16:42 | 9.65977 | -75.68128 | 21751 ft | 434 kts | 182° |
| 2026-05-06 16:42 | 9.62958 | -75.68375 | 22145 ft | 437 kts | 182° |
| 2026-05-06 16:42 | 9.59920 | -75.68624 | 22549 ft | 440 kts | 183° |
| 2026-05-06 16:43 | 9.56851 | -75.68876 | 22937 ft | 443 kts | 183° |
| 2026-05-06 16:43 | 9.53773 | -75.69126 | 23317 ft | 446 kts | 183° |
| 2026-05-06 16:43 | 9.50671 | -75.69376 | 23685 ft | 448 kts | 183° |
| 2026-05-06 16:43 | 9.47555 | -75.69628 | 24011 ft | 449 kts | 183° |
| 2026-05-06 16:44 | 9.44435 | -75.69879 | 24315 ft | 451 kts | 183° |
| 2026-05-06 16:44 | 9.41332 | -75.70129 | 24614 ft | 453 kts | 183° |
| 2026-05-06 16:44 | 9.38180 | -75.70384 | 24918 ft | 455 kts | 184° |
| 2026-05-06 16:44 | 9.35013 | -75.70640 | 25209 ft | 457 kts | 184° |
| 2026-05-06 16:45 | 9.31827 | -75.70898 | 25510 ft | 459 kts | 184° |
| 2026-05-06 16:45 | 9.28636 | -75.71159 | 25800 ft | 461 kts | 184° |
| 2026-05-06 16:45 | 9.25428 | -75.71422 | 26081 ft | 464 kts | 184° |
| 2026-05-06 16:45 | 9.22200 | -75.71685 | 26368 ft | 465 kts | 184° |
| 2026-05-06 16:46 | 9.18961 | -75.71947 | 26652 ft | 468 kts | 184° |
| 2026-05-06 16:46 | 9.15711 | -75.72210 | 26955 ft | 469 kts | 184° |
| 2026-05-06 16:46 | 9.12458 | -75.72472 | 27238 ft | 470 kts | 184° |
| 2026-05-06 16:46 | 9.09184 | -75.72734 | 27509 ft | 472 kts | 184° |
| 2026-05-06 16:47 | 9.05899 | -75.72998 | 27761 ft | 474 kts | 184° |
| 2026-05-06 16:47 | 9.02603 | -75.73263 | 28025 ft | 476 kts | 184° |
| 2026-05-06 16:47 | 8.99299 | -75.73528 | 28278 ft | 478 kts | 184° |
| 2026-05-06 16:47 | 8.96017 | -75.73793 | 28529 ft | 479 kts | 184° |
| 2026-05-06 16:48 | 8.92684 | -75.74063 | 28746 ft | 481 kts | 184° |
| 2026-05-06 16:48 | 8.89340 | -75.74335 | 28968 ft | 483 kts | 184° |
| 2026-05-06 16:48 | 8.85968 | -75.74612 | 29183 ft | 484 kts | 184° |
| 2026-05-06 16:48 | 8.82607 | -75.74887 | 29440 ft | 484 kts | 184° |
| 2026-05-06 16:49 | 8.79239 | -75.75160 | 29735 ft | 484 kts | 184° |
| 2026-05-06 16:49 | 8.75881 | -75.75428 | 30005 ft | 484 kts | 184° |
| 2026-05-06 16:49 | 8.72560 | -75.75694 | 30223 ft | 484 kts | 184° |
| 2026-05-06 16:49 | 8.69209 | -75.75962 | 30486 ft | 483 kts | 184° |
| 2026-05-06 16:50 | 8.65855 | -75.76230 | 30749 ft | 483 kts | 184° |
| 2026-05-06 16:50 | 8.62507 | -75.76502 | 31001 ft | 482 kts | 184° |
| 2026-05-06 16:50 | 8.59169 | -75.76776 | 31295 ft | 481 kts | 184° |
| 2026-05-06 16:50 | 8.55836 | -75.77049 | 31568 ft | 480 kts | 184° |
| 2026-05-06 16:51 | 8.52505 | -75.77320 | 31823 ft | 480 kts | 184° |
| 2026-05-06 16:51 | 8.49178 | -75.77589 | 32126 ft | 478 kts | 184° |
| 2026-05-06 16:51 | 8.45858 | -75.77855 | 32413 ft | 478 kts | 185° |
| 2026-05-06 16:51 | 8.42548 | -75.78120 | 32700 ft | 476 kts | 184° |
| 2026-05-06 16:52 | 8.39246 | -75.78381 | 33022 ft | 474 kts | 184° |
| 2026-05-06 16:52 | 8.35959 | -75.78642 | 33341 ft | 472 kts | 184° |
| 2026-05-06 16:52 | 8.32687 | -75.78903 | 33677 ft | 470 kts | 185° |
| 2026-05-06 16:52 | 8.29480 | -75.79163 | 33993 ft | 468 kts | 185° |
| 2026-05-06 16:53 | 8.26230 | -75.79427 | 34255 ft | 467 kts | 185° |
| 2026-05-06 16:53 | 8.22993 | -75.79687 | 34525 ft | 467 kts | 185° |
| 2026-05-06 16:53 | 8.19757 | -75.79947 | 34815 ft | 464 kts | 185° |
| 2026-05-06 16:53 | 8.16538 | -75.80206 | 35082 ft | 463 kts | 185° |
| 2026-05-06 16:54 | 8.13330 | -75.80466 | 35334 ft | 462 kts | 185° |
| 2026-05-06 16:54 | 8.10129 | -75.80730 | 35575 ft | 461 kts | 185° |
| 2026-05-06 16:54 | 8.06930 | -75.80991 | 35811 ft | 460 kts | 184° |
| 2026-05-06 16:54 | 8.03742 | -75.81244 | 36044 ft | 459 kts | 184° |
| 2026-05-06 16:55 | 8.00560 | -75.81495 | 36260 ft | 458 kts | 184° |
| 2026-05-06 16:55 | 7.97420 | -75.81710 | 36465 ft | 457 kts | 182° |
| 2026-05-06 16:55 | 7.94245 | -75.81803 | 36691 ft | 456 kts | 180° |
| 2026-05-06 16:55 | 7.91071 | -75.81792 | 36868 ft | 455 kts | 179° |
| 2026-05-06 16:56 | 7.87888 | -75.81732 | 36942 ft | 457 kts | 178° |
| 2026-05-06 16:56 | 7.81503 | -75.81605 | 36941 ft | 459 kts | 180° |
| 2026-05-06 16:57 | 7.75101 | -75.81566 | 36952 ft | 460 kts | 180° |
| 2026-05-06 16:57 | 7.68686 | -75.81578 | 36961 ft | 461 kts | 180° |
| 2026-05-06 16:58 | 7.62314 | -75.81575 | 36967 ft | 460 kts | 180° |
| 2026-05-06 16:58 | 7.55897 | -75.81556 | 36979 ft | 461 kts | 179° |
| 2026-05-06 16:59 | 7.49484 | -75.81542 | 37011 ft | 461 kts | 179° |
| 2026-05-06 16:59 | 7.43071 | -75.81532 | 37005 ft | 464 kts | 179° |
| 2026-05-06 17:00 | 7.36611 | -75.81520 | 37022 ft | 464 kts | 179° |
| 2026-05-06 17:00 | 7.30107 | -75.81494 | 37062 ft | 467 kts | 179° |
| 2026-05-06 17:01 | 7.23605 | -75.81477 | 37069 ft | 467 kts | 179° |
| 2026-05-06 17:01 | 7.17119 | -75.81465 | 37029 ft | 464 kts | 179° |
| 2026-05-06 17:02 | 7.10717 | -75.81460 | 37047 ft | 463 kts | 179° |
| 2026-05-06 17:02 | 7.04246 | -75.81459 | 37064 ft | 469 kts | 178° |
| 2026-05-06 17:03 | 6.97763 | -75.81426 | 37065 ft | 465 kts | 178° |
| 2026-05-06 17:03 | 6.91259 | -75.81412 | 37092 ft | 466 kts | 179° |
| 2026-05-06 17:04 | 6.84783 | -75.81423 | 37062 ft | 462 kts | 179° |
| 2026-05-06 17:04 | 6.78401 | -75.81421 | 37055 ft | 461 kts | 179° |
| 2026-05-06 17:05 | 6.71967 | -75.81399 | 37057 ft | 463 kts | 179° |
| 2026-05-06 17:05 | 6.65522 | -75.81372 | 37074 ft | 463 kts | 178° |
| 2026-05-06 17:06 | 6.59085 | -75.81356 | 37078 ft | 463 kts | 178° |
| 2026-05-06 17:06 | 6.52645 | -75.81352 | 37089 ft | 461 kts | 179° |
| 2026-05-06 17:07 | 6.46221 | -75.81346 | 37079 ft | 461 kts | 178° |
| 2026-05-06 17:07 | 6.39778 | -75.81323 | 37082 ft | 462 kts | 178° |
| 2026-05-06 17:08 | 6.33405 | -75.81299 | 37069 ft | 460 kts | 178° |
| 2026-05-06 17:08 | 6.27000 | -75.81269 | 37148 ft | 461 kts | 179° |
| 2026-05-06 17:09 | 6.20649 | -75.81273 | 37102 ft | 451 kts | 179° |
| 2026-05-06 17:09 | 6.14388 | -75.81250 | 37139 ft | 452 kts | 179° |
| 2026-05-06 17:10 | 6.08034 | -75.81234 | 37117 ft | 459 kts | 179° |
| 2026-05-06 17:10 | 6.01668 | -75.81227 | 37087 ft | 461 kts | 179° |
| 2026-05-06 17:11 | 5.95212 | -75.81215 | 37059 ft | 461 kts | 179° |
| 2026-05-06 17:11 | 5.88800 | -75.81197 | 37062 ft | 461 kts | 179° |
| 2026-05-06 17:12 | 5.82407 | -75.81288 | 37046 ft | 463 kts | 180° |
| 2026-05-06 17:12 | 5.75949 | -75.81508 | 37042 ft | 466 kts | 181° |
| 2026-05-06 17:13 | 5.69462 | -75.81729 | 37056 ft | 467 kts | 180° |
| 2026-05-06 17:13 | 5.62970 | -75.81892 | 37057 ft | 465 kts | 180° |
| 2026-05-06 17:14 | 5.56498 | -75.82022 | 37068 ft | 466 kts | 180° |
| 2026-05-06 17:14 | 5.50016 | -75.82095 | 37066 ft | 466 kts | 180° |
| 2026-05-06 17:15 | 5.43525 | -75.82147 | 37079 ft | 467 kts | 180° |
| 2026-05-06 17:15 | 5.37024 | -75.82210 | 37093 ft | 467 kts | 180° |
| 2026-05-06 17:16 | 5.30522 | -75.82297 | 37079 ft | 467 kts | 180° |
| 2026-05-06 17:16 | 5.24066 | -75.82378 | 37090 ft | 467 kts | 180° |
| 2026-05-06 17:17 | 5.17558 | -75.82457 | 37101 ft | 468 kts | 180° |
| 2026-05-06 17:17 | 5.11040 | -75.82558 | 37111 ft | 468 kts | 181° |
| 2026-05-06 17:18 | 5.04532 | -75.82760 | 37102 ft | 466 kts | 181° |
| 2026-05-06 17:18 | 4.98058 | -75.82996 | 37108 ft | 466 kts | 181° |
| 2026-05-06 17:19 | 4.91575 | -75.83209 | 37153 ft | 466 kts | 181° |
| 2026-05-06 17:19 | 4.85090 | -75.83406 | 37160 ft | 466 kts | 181° |
| 2026-05-06 17:20 | 4.78690 | -75.84078 | 37150 ft | 466 kts | 195° |
| 2026-05-06 17:20 | 4.72764 | -75.86639 | 37144 ft | 466 kts | 209° |
| 2026-05-06 17:21 | 4.67098 | -75.89820 | 37132 ft | 466 kts | 209° |
| 2026-05-06 17:21 | 4.61427 | -75.92977 | 37106 ft | 466 kts | 209° |
| 2026-05-06 17:22 | 4.55756 | -75.96145 | 37076 ft | 467 kts | 209° |
| 2026-05-06 17:22 | 4.52917 | -75.97732 | 36912 ft | 466 kts | 209° |
| 2026-05-06 17:22 | 4.50087 | -75.99314 | 36668 ft | 466 kts | 208° |
| 2026-05-06 17:22 | 4.47252 | -76.00899 | 36424 ft | 466 kts | 208° |
| 2026-05-06 17:23 | 4.44408 | -76.02488 | 35669 ft | 470 kts | 208° |
| 2026-05-06 17:23 | 4.41544 | -76.04092 | 34841 ft | 474 kts | 208° |
| 2026-05-06 17:23 | 4.38692 | -76.05690 | 33953 ft | 478 kts | 207° |
| 2026-05-06 17:23 | 4.35769 | -76.07329 | 32853 ft | 484 kts | 207° |
| 2026-05-06 17:24 | 4.32820 | -76.08988 | 31836 ft | 487 kts | 207° |
| 2026-05-06 17:24 | 4.29845 | -76.10665 | 30763 ft | 491 kts | 207° |
| 2026-05-06 17:24 | 4.26842 | -76.12357 | 29524 ft | 498 kts | 208° |
| 2026-05-06 17:24 | 4.23815 | -76.14061 | 28387 ft | 500 kts | 208° |
| 2026-05-06 17:25 | 4.20810 | -76.15758 | 27764 ft | 491 kts | 207° |
| 2026-05-06 17:25 | 4.17852 | -76.17433 | 26983 ft | 487 kts | 208° |
| 2026-05-06 17:25 | 4.14919 | -76.19099 | 26229 ft | 482 kts | 208° |
| 2026-05-06 17:25 | 4.11997 | -76.20731 | 25511 ft | 479 kts | 205° |
| 2026-05-06 17:26 | 4.08933 | -76.21982 | 24643 ft | 475 kts | 195° |
| 2026-05-06 17:26 | 4.05746 | -76.22670 | 23748 ft | 474 kts | 184° |
| 2026-05-06 17:26 | 4.02486 | -76.22962 | 22977 ft | 469 kts | 183° |
| 2026-05-06 17:26 | 3.99218 | -76.23268 | 22334 ft | 461 kts | 183° |
| 2026-05-06 17:27 | 3.96082 | -76.23577 | 21652 ft | 457 kts | 184° |
| 2026-05-06 17:27 | 3.92937 | -76.23892 | 20961 ft | 452 kts | 184° |
| 2026-05-06 17:27 | 3.89790 | -76.24208 | 20155 ft | 453 kts | 184° |
| 2026-05-06 17:27 | 3.86674 | -76.24520 | 19622 ft | 446 kts | 184° |
| 2026-05-06 17:28 | 3.83602 | -76.24824 | 19046 ft | 441 kts | 184° |
| 2026-05-06 17:28 | 3.80559 | -76.25119 | 18477 ft | 437 kts | 184° |
| 2026-05-06 17:28 | 3.78557 | -76.25312 | 18052 ft | 435 kts | 184° |
| 2026-05-06 17:28 | 3.75558 | -76.25599 | 17449 ft | 430 kts | 183° |
| 2026-05-06 17:29 | 3.72593 | -76.25887 | 16865 ft | 426 kts | 183° |
| 2026-05-06 17:29 | 3.68709 | -76.26263 | 16191 ft | 419 kts | 183° |
| 2026-05-06 17:29 | 3.65861 | -76.26547 | 16060 ft | 399 kts | 184° |
| 2026-05-06 17:29 | 3.63202 | -76.26861 | 15968 ft | 371 kts | 184° |
| 2026-05-06 17:30 | 3.60727 | -76.27182 | 15847 ft | 347 kts | 184° |
| 2026-05-06 17:30 | 3.59137 | -76.27394 | 15767 ft | 333 kts | 184° |
| 2026-05-06 17:30 | 3.56908 | -76.27690 | 15627 ft | 314 kts | 184° |
| 2026-05-06 17:30 | 3.54803 | -76.27962 | 15292 ft | 305 kts | 184° |
| 2026-05-06 17:31 | 3.52713 | -76.28222 | 14912 ft | 300 kts | 184° |
| 2026-05-06 17:31 | 3.50660 | -76.28476 | 14717 ft | 295 kts | 184° |
| 2026-05-06 17:31 | 3.48634 | -76.28810 | 14576 ft | 297 kts | 188° |
| 2026-05-06 17:31 | 3.46579 | -76.29257 | 14159 ft | 302 kts | 188° |
| 2026-05-06 17:32 | 3.44550 | -76.29708 | 13931 ft | 296 kts | 189° |
| 2026-05-06 17:32 | 3.42547 | -76.30154 | 13367 ft | 293 kts | 189° |
| 2026-05-06 17:32 | 3.40567 | -76.30593 | 12804 ft | 291 kts | 189° |
| 2026-05-06 17:32 | 3.38601 | -76.31028 | 12224 ft | 289 kts | 190° |
| 2026-05-06 17:33 | 3.36621 | -76.31466 | 11569 ft | 290 kts | 190° |
| 2026-05-06 17:33 | 3.34695 | -76.31892 | 11328 ft | 276 kts | 190° |
| 2026-05-06 17:33 | 3.32873 | -76.32296 | 11197 ft | 263 kts | 190° |
| 2026-05-06 17:33 | 3.31094 | -76.32690 | 11072 ft | 261 kts | 190° |
| 2026-05-06 17:34 | 3.29310 | -76.33085 | 10649 ft | 265 kts | 190° |
| 2026-05-06 17:34 | 3.27497 | -76.33490 | 10247 ft | 268 kts | 192° |
| 2026-05-06 17:34 | 3.25843 | -76.34322 | 9828 ft | 268 kts | 225° |
| 2026-05-06 17:34 | 3.24989 | -76.35894 | 9454 ft | 260 kts | 261° |
| 2026-05-06 17:35 | 3.25022 | -76.37663 | 9063 ft | 253 kts | 280° |
| 2026-05-06 17:35 | 3.25430 | -76.39413 | 8645 ft | 256 kts | 285° |
| 2026-05-06 17:35 | 3.26016 | -76.41093 | 8221 ft | 257 kts | 301° |
| 2026-05-06 17:36 | 3.28991 | -76.42557 | 7544 ft | 251 kts | 6° |
| 2026-05-06 17:36 | 3.30715 | -76.42291 | 7193 ft | 250 kts | 9° |
| 2026-05-06 17:36 | 3.32436 | -76.41994 | 6833 ft | 251 kts | 9° |
| 2026-05-06 17:36 | 3.34162 | -76.41688 | 6469 ft | 252 kts | 8° |
| 2026-05-06 17:37 | 3.35863 | -76.41384 | 6102 ft | 246 kts | 8° |
| 2026-05-06 17:37 | 3.37515 | -76.41088 | 5934 ft | 233 kts | 9° |
| 2026-05-06 17:37 | 3.39087 | -76.40814 | 5788 ft | 223 kts | 9° |
| 2026-05-06 17:37 | 3.40599 | -76.40555 | 5543 ft | 219 kts | 8° |
| 2026-05-06 17:38 | 3.42067 | -76.40299 | 5311 ft | 208 kts | 8° |
| 2026-05-06 17:38 | 3.43451 | -76.40058 | 5026 ft | 195 kts | 9° |
| 2026-05-06 17:38 | 3.44747 | -76.39831 | 4786 ft | 182 kts | 9° |
| 2026-05-06 17:38 | 3.45947 | -76.39624 | 4570 ft | 167 kts | 8° |
| 2026-05-06 17:39 | 3.47032 | -76.39433 | 4364 ft | 158 kts | 9° |
| 2026-05-06 17:39 | 3.48093 | -76.39250 | 4162 ft | 152 kts | 10° |
| 2026-05-06 17:39 | 3.49134 | -76.39071 | 3928 ft | 151 kts | 10° |
| 2026-05-06 17:39 | 3.50164 | -76.38885 | 3721 ft | 149 kts | 10° |
| 2026-05-06 17:40 | 3.51185 | -76.38707 | 3551 ft | 149 kts | 8° |
| 2026-05-06 17:40 | 3.52205 | -76.38528 | 3355 ft | 148 kts | 8° |
| 2026-05-06 17:40 | 3.53220 | -76.38355 | 3170 ft | 144 kts | 9° |
| 2026-05-06 17:40 | 3.54101 | -76.38205 | 3166 ft | 111 kts | 10° |
| 2026-05-06 17:41 | 3.54699 | -76.38104 | 3166 ft | 61 kts | 9° |
| 2026-05-06 17:41 | 3.54985 | -76.38053 | 3166 ft | 19 kts | 9° |
| 2026-05-06 17:41 | 3.55088 | -76.38056 | 3168 ft | 8 kts | 318° |
| 2026-05-06 17:41 | 3.55101 | -76.38100 | 3168 ft | 7 kts | 279° |
| 2026-05-06 17:42 | 3.55111 | -76.38157 | 3168 ft | 8 kts | 279° |
| 2026-05-06 17:42 | 3.55089 | -76.38201 | 3168 ft | 9 kts | 208° |
| 2026-05-06 17:42 | 3.55013 | -76.38212 | 3168 ft | 13 kts | 189° |
| 2026-05-06 17:42 | 3.54907 | -76.38231 | 3167 ft | 17 kts | 189° |
| 2026-05-06 17:43 | 3.54790 | -76.38251 | 3167 ft | 17 kts | 189° |
| 2026-05-06 17:43 | 3.54683 | -76.38269 | 3166 ft | 12 kts | 189° |
| 2026-05-06 17:43 | 3.54589 | -76.38285 | 3167 ft | 16 kts | 190° |
| 2026-05-06 17:43 | 3.54468 | -76.38307 | 3165 ft | 20 kts | 190° |
| 2026-05-06 17:44 | 3.54344 | -76.38327 | 3165 ft | 17 kts | 189° |
| 2026-05-06 17:44 | 3.54227 | -76.38348 | 3165 ft | 15 kts | 190° |
| 2026-05-06 17:44 | 3.54132 | -76.38365 | 3164 ft | 12 kts | 190° |
| 2026-05-06 17:44 | 3.54042 | -76.38415 | 3164 ft | 17 kts | 222° |
| 2026-05-06 17:45 | 3.53941 | -76.38501 | 3163 ft | 19 kts | 219° |
| 2026-05-06 17:45 | 3.53865 | -76.38565 | 3162 ft | 13 kts | 229° |
| 2026-05-06 17:45 | 3.53875 | -76.38644 | 3164 ft | 8 kts | 309° |
| 2026-05-06 17:45 | 3.53916 | -76.38696 | 3164 ft | 11 kts | 281° |
| 2026-05-06 17:46 | 3.53923 | -76.38770 | 3163 ft | 10 kts | 269° |
| 2026-05-06 17:46 | 3.53891 | -76.38817 | 3164 ft | 8 kts | 224° |
| 2026-05-06 17:46 | 3.53844 | -76.38849 | 3162 ft | 5 kts | 197° |
| 2026-05-06 17:46 | 3.53817 | -76.38843 | 3163 ft | 4 kts | 135° |
| 2026-05-06 17:47 | 3.53819 | -76.38808 | 3162 ft | 5 kts | 79° |
| 2026-05-06 17:47 | 3.53820 | -76.38795 | 3162 ft | 1 kts | 85° |
| 2026-05-06 17:47 | 3.53820 | -76.38790 | 3162 ft | 0 kts | 86° |